Time;durP1;ratioP1;P1;durP2;ratioP2;P2;SDS_P1;SDS_P2;PMS_P1;PMS_P2;Temp;Humidity;BMP_temperature;BMP_pressure;BME280_temperature;BME280_humidity;BME280_pressure;Samples;Min_cycle;Max_cycle;Signal;HPM_P1;HPM_P2
2022/09/09 21:31:46;;;;;;;1.00;0.90;;;20.90;70.60;;;;;;5099869;27;20406;-34
2022/09/09 21:34:14;;;;;;;2.00;1.00;;;21.00;70.40;;;;;;5118273;28;20050;-34
2022/09/09 21:36:40;;;;;;;0.88;0.88;;;21.00;69.70;;;;;;5105537;28;20040;-35
2022/09/09 21:39:06;;;;;;;1.00;1.00;;;21.00;70.80;;;;;;5099491;28;20024;-34
2022/09/09 21:41:32;;;;;;;1.20;1.10;;;21.10;71.20;;;;;;5098554;28;20115;-35
2022/09/09 21:43:58;;;;;;;1.52;1.00;;;21.10;71.00;;;;;;5093027;28;20110;-34
2022/09/09 21:46:25;;;;;;;1.13;0.85;;;21.10;72.10;;;;;;5082150;28;20667;-37
2022/09/09 21:48:51;;;;;;;;;;;21.20;70.70;;;;;;5099947;28;20497;-35
2022/09/09 21:51:18;;;;;;;1.23;1.00;;;21.20;70.10;;;;;;5104503;28;19912;-35
2022/09/09 21:53:44;;;;;;;1.30;1.13;;;21.20;70.50;;;;;;5114774;28;20056;-35
2022/09/09 21:56:12;;;;;;;2.17;1.13;;;21.20;70.50;;;;;;5101076;28;20039;-35
2022/09/09 21:58:39;;;;;;;3.78;1.45;;;21.30;69.90;;;;;;5099535;28;20031;-35
2022/09/09 22:01:10;;;;;;;4.45;1.67;;;21.30;70.70;;;;;;5097573;28;20378;-36
2022/09/09 22:03:41;;;;;;;3.10;1.40;;;21.30;71.30;;;;;;5086079;28;20071;-36
2022/09/09 22:06:08;;;;;;;3.75;1.40;;;21.30;71.20;;;;;;5079072;28;20029;-35
2022/09/09 22:08:34;;;;;;;;;;;21.30;70.80;;;;;;5080174;28;20028;-35
2022/09/09 22:11:08;;;;;;;4.22;1.55;;;21.40;71.10;;;;;;5095294;28;19943;-37
2022/09/09 22:13:35;;;;;;;4.05;1.60;;;21.40;70.50;;;;;;5097150;28;20052;-35
2022/09/09 22:16:02;;;;;;;;;;;21.40;70.10;;;;;;5099258;28;20043;-35
2022/09/09 22:18:31;;;;;;;5.07;2.10;;;21.40;69.90;;;;;;5098191;28;19908;-35
2022/09/09 22:20:58;;;;;;;5.00;1.50;;;21.40;70.70;;;;;;5099144;28;20048;-36
2022/09/09 22:23:25;;;;;;;4.88;2.20;;;21.40;70.40;;;;;;5096422;28;20024;-34
2022/09/09 22:25:53;;;;;;;2.80;1.70;;;21.50;71.20;;;;;;5095534;28;20032;-39
2022/09/09 22:28:20;;;;;;;3.42;1.30;;;21.50;70.70;;;;;;5098785;28;20032;-34
2022/09/09 22:30:46;;;;;;;;;;;21.50;70.00;;;;;;5097905;28;20056;-36
2022/09/09 22:33:12;;;;;;;2.88;1.50;;;21.50;70.30;;;;;;5093392;28;19920;-36
2022/09/09 22:35:41;;;;;;;3.35;1.35;;;21.50;68.90;;;;;;5078484;28;20059;-37
2022/09/09 22:38:09;;;;;;;4.20;1.40;;;21.50;70.10;;;;;;5083565;28;20051;-36
2022/09/09 22:40:39;;;;;;;4.05;1.35;;;21.50;70.50;;;;;;5097946;28;20139;-37
2022/09/09 22:43:10;;;;;;;4.65;1.40;;;21.60;70.40;;;;;;5079323;28;20029;-37
2022/09/09 22:45:36;;;;;;;2.25;1.15;;;21.60;70.00;;;;;;5083097;28;20036;-37
2022/09/09 22:48:03;;;;;;;1.27;1.15;;;21.60;68.90;;;;;;5085307;28;20433;-36
2022/09/09 22:50:34;;;;;;;2.60;1.25;;;21.60;68.20;;;;;;5084555;28;20070;-36
2022/09/09 22:53:00;;;;;;;1.98;1.40;;;21.60;67.30;;;;;;5079146;28;20033;-36
2022/09/09 22:55:26;;;;;;;3.08;1.23;;;21.60;66.50;;;;;;5084893;28;20036;-36
2022/09/09 22:57:53;;;;;;;2.17;1.03;;;21.60;67.20;;;;;;5085009;28;20024;-36
2022/09/09 23:00:19;;;;;;;1.73;1.30;;;21.60;68.50;;;;;;5083906;28;20037;-37
2022/09/09 23:02:47;;;;;;;2.63;1.20;;;21.60;69.20;;;;;;5088970;28;20075;-35
2022/09/09 23:05:14;;;;;;;3.03;1.30;;;21.60;68.80;;;;;;5105038;28;20031;-35
2022/09/09 23:07:41;;;;;;;1.65;1.00;;;21.60;67.90;;;;;;5101311;28;20048;-36
2022/09/09 23:10:09;;;;;;;3.70;1.30;;;21.60;67.80;;;;;;5084089;28;20058;-36
2022/09/09 23:12:36;;;;;;;3.08;1.38;;;21.60;67.00;;;;;;5077264;28;20040;-36
2022/09/09 23:15:08;;;;;;;1.52;1.23;;;21.60;67.00;;;;;;5081776;28;20009;-36
2022/09/09 23:17:35;;;;;;;1.75;1.33;;;21.60;68.60;;;;;;5065976;28;20285;-36
2022/09/09 23:20:03;;;;;;;1.77;1.30;;;21.60;69.50;;;;;;5069808;28;20020;-36
2022/09/09 23:22:29;;;;;;;3.90;1.17;;;21.60;69.40;;;;;;5084157;28;20036;-36
2022/09/09 23:24:56;;;;;;;2.77;1.10;;;21.60;68.60;;;;;;5073690;28;20058;-36
2022/09/09 23:27:23;;;;;;;2.85;1.17;;;21.60;68.20;;;;;;5100333;28;20622;-36
2022/09/09 23:29:49;;;;;;;2.43;1.03;;;21.60;67.20;;;;;;5074390;28;20053;-36
2022/09/09 23:32:16;;;;;;;1.10;0.95;;;21.60;66.40;;;;;;5076714;28;20033;-36
2022/09/09 23:34:44;;;;;;;1.70;1.15;;;21.60;66.30;;;;;;5080509;28;20048;-37
2022/09/09 23:37:11;;;;;;;1.30;1.10;;;21.60;67.70;;;;;;5084061;28;20028;-36
2022/09/09 23:39:39;;;;;;;1.60;1.05;;;21.60;68.70;;;;;;5083716;28;20025;-38
2022/09/09 23:42:08;;;;;;;1.67;1.13;;;21.60;68.80;;;;;;5075810;28;20040;-37
2022/09/09 23:44:37;;;;;;;1.17;0.95;;;21.60;67.80;;;;;;5083133;28;20037;-37
2022/09/09 23:47:04;;;;;;;3.20;1.10;;;21.60;66.80;;;;;;5083720;28;20028;-37
2022/09/09 23:49:32;;;;;;;1.10;0.98;;;21.60;65.90;;;;;;5065905;28;20035;-37
2022/09/09 23:52:02;;;;;;;1.88;0.88;;;21.60;65.30;;;;;;5067073;28;20028;-36
2022/09/09 23:54:28;;;;;;;2.78;0.80;;;21.60;64.90;;;;;;5082647;28;20441;-36
2022/09/09 23:56:54;;;;;;;1.40;0.63;;;21.60;65.30;;;;;;5086697;28;20028;-37
2022/09/09 23:59:21;;;;;;;1.95;1.00;;;21.60;67.20;;;;;;5101618;28;20028;-36
